createdAt,value
2018-12-21T00:00:57.612Z,90.55
2018-12-21T00:01:57.717Z,90.59
2018-12-21T00:02:57.695Z,90.63
2018-12-21T00:03:57.651Z,90.64
2018-12-21T00:04:57.777Z,90.59
2018-12-21T00:05:57.705Z,90.52
2018-12-21T00:06:57.757Z,90.52
2018-12-21T00:07:58.946Z,90.5
2018-12-21T00:08:57.848Z,90.44
2018-12-21T00:09:58.117Z,90.11
2018-12-21T00:10:57.636Z,90.01
2018-12-21T00:11:57.717Z,89.98
2018-12-21T00:12:57.550Z,90.08
2018-12-21T00:13:57.603Z,89.74
2018-12-21T00:14:57.637Z,89.95
2018-12-21T00:15:57.669Z,89.97
2018-12-21T00:16:57.692Z,89.92
2018-12-21T00:17:57.562Z,89.8
2018-12-21T00:18:57.670Z,89.54
2018-12-21T00:19:57.594Z,89.58
2018-12-21T00:20:57.536Z,89.51
2018-12-21T00:21:57.570Z,89.49
2018-12-21T00:22:57.594Z,89.16
2018-12-21T00:23:57.749Z,89.42
2018-12-21T00:24:57.717Z,89.45
2018-12-21T00:25:57.514Z,89.55
2018-12-21T00:26:57.524Z,89.56
2018-12-21T00:27:57.718Z,89.54
2018-12-21T00:28:57.573Z,89.52
2018-12-21T00:29:57.683Z,89.27
2018-12-21T00:30:57.651Z,89.28
2018-12-21T00:31:57.577Z,89.41
2018-12-21T00:32:57.739Z,89.15
2018-12-21T00:33:57.539Z,89
2018-12-21T00:34:57.600Z,88.96
2018-12-21T00:35:57.567Z,89.19
2018-12-21T00:36:57.543Z,89.11
2018-12-21T00:37:57.599Z,89.07
2018-12-21T00:38:57.559Z,88.96
2018-12-21T00:39:57.661Z,88.93
2018-12-21T00:40:57.734Z,88.73
2018-12-21T00:41:57.529Z,88.72
2018-12-21T00:42:57.514Z,88.9
2018-12-21T00:43:57.621Z,88.86
2018-12-21T00:44:57.686Z,88.79
2018-12-21T00:45:57.692Z,88.81
2018-12-21T00:46:57.751Z,88.75
2018-12-21T00:47:57.812Z,88.59
2018-12-21T00:48:57.668Z,88.38
2018-12-21T00:49:57.776Z,88.35
2018-12-21T00:50:57.674Z,88.27
2018-12-21T00:51:57.649Z,87.79
2018-12-21T00:52:57.510Z,87.91
2018-12-21T00:53:57.517Z,88.16
2018-12-21T00:54:57.679Z,88.28
2018-12-21T00:55:57.571Z,88.3
2018-12-21T00:56:57.491Z,88.45
2018-12-21T00:57:57.623Z,88.38
2018-12-21T00:58:57.521Z,87.98
2018-12-21T00:59:57.664Z,88.14
2018-12-21T01:00:57.534Z,88.28
2018-12-21T01:01:57.572Z,88.3
2018-12-21T01:02:57.513Z,88.26
2018-12-21T01:03:57.487Z,88.12
2018-12-21T01:04:57.536Z,88.11
2018-12-21T01:05:57.654Z,87.64
2018-12-21T01:06:57.489Z,87.75
2018-12-21T01:07:57.478Z,87.9
2018-12-21T01:08:57.594Z,87.96
2018-12-21T01:09:57.545Z,88.03
2018-12-21T01:10:57.532Z,88.06
2018-12-21T01:11:57.489Z,88.1
2018-12-21T01:12:57.701Z,87.95
2018-12-21T01:13:57.538Z,88.03
2018-12-21T01:14:57.510Z,88.01
2018-12-21T01:15:57.704Z,88.09
2018-12-21T01:16:58.053Z,88.09
2018-12-21T01:17:57.742Z,88.18
2018-12-21T01:18:57.509Z,88.4
2018-12-21T01:19:57.650Z,88.51
2018-12-21T01:20:57.851Z,88.6
2018-12-21T01:21:57.510Z,88.67
2018-12-21T01:22:57.551Z,88.74
2018-12-21T01:23:57.472Z,88.8
2018-12-21T01:24:57.669Z,88.89
2018-12-21T01:25:57.808Z,88.98
2018-12-21T01:26:57.719Z,89.19
2018-12-21T01:27:57.654Z,89.18
2018-12-21T01:28:57.540Z,89.19
2018-12-21T01:29:57.583Z,89.21
2018-12-21T01:30:57.628Z,89.21
2018-12-21T01:31:57.514Z,89.27
2018-12-21T01:32:57.690Z,89.29
2018-12-21T01:33:57.647Z,89.49
2018-12-21T01:34:57.505Z,89.54
2018-12-21T01:35:57.538Z,89.68
2018-12-21T01:36:57.546Z,89.79
2018-12-21T01:37:57.539Z,89.76
2018-12-21T01:38:57.474Z,89.93
2018-12-21T01:39:57.466Z,89.89
2018-12-21T01:40:57.439Z,89.89
2018-12-21T01:41:58.015Z,89.99
2018-12-21T01:42:57.455Z,90.45
2018-12-21T01:43:57.561Z,90.32
2018-12-21T01:44:57.742Z,90.29
2018-12-21T01:45:58.317Z,90.22
2018-12-21T01:46:57.658Z,90.36
2018-12-21T01:47:57.468Z,90.37
2018-12-21T01:48:58.270Z,90.5
2018-12-21T01:49:57.447Z,90.15
2018-12-21T01:50:57.442Z,90.17
2018-12-21T01:51:57.469Z,89.9
2018-12-21T01:52:57.505Z,89.91
2018-12-21T01:53:57.565Z,89.78
2018-12-21T01:54:57.583Z,89.64
2018-12-21T01:55:57.677Z,89.7
2018-12-21T01:56:57.604Z,89.9
2018-12-21T01:57:57.670Z,89.84
2018-12-21T01:58:57.654Z,89.67
2018-12-21T01:59:57.635Z,89.58
2018-12-21T02:00:57.418Z,89.61
2018-12-21T02:01:57.819Z,89.52
2018-12-21T02:02:57.651Z,89.57
2018-12-21T02:03:57.602Z,89.56
2018-12-21T02:04:58.240Z,89.56
2018-12-21T02:05:57.777Z,89.65
2018-12-21T02:06:57.528Z,89.66
2018-12-21T02:07:57.586Z,89.56
2018-12-21T02:08:57.654Z,89.72
2018-12-21T02:09:57.395Z,89.78
2018-12-21T02:10:57.550Z,89.67
2018-12-21T02:11:57.525Z,89.65
2018-12-21T02:12:57.765Z,89.63
2018-12-21T02:13:57.449Z,89.65
2018-12-21T02:14:57.419Z,89.79
2018-12-21T02:15:57.571Z,89.6
2018-12-21T02:16:57.404Z,89.53
2018-12-21T02:17:57.642Z,89.67
2018-12-21T02:18:57.503Z,89.63
2018-12-21T02:19:57.766Z,89.16
2018-12-21T02:20:57.444Z,89.15
2018-12-21T02:21:57.706Z,89.11
2018-12-21T02:22:57.551Z,89.04
2018-12-21T02:23:57.722Z,89.14
2018-12-21T02:24:57.894Z,89.19
2018-12-21T02:25:58.225Z,89.3
2018-12-21T02:26:57.450Z,88.92
2018-12-21T02:27:57.403Z,88.56
2018-12-21T02:28:57.382Z,88.1
2018-12-21T02:29:57.443Z,88.06
2018-12-21T02:30:57.647Z,88.16
2018-12-21T02:31:57.548Z,88.42
2018-12-21T02:32:57.574Z,88.5
2018-12-21T02:33:57.396Z,88.4
2018-12-21T02:34:57.540Z,88.44
2018-12-21T02:35:57.380Z,88.38
2018-12-21T02:36:57.379Z,88.29
2018-12-21T02:37:57.416Z,88.45
2018-12-21T02:38:57.365Z,88.1
2018-12-21T02:39:57.410Z,88.18
2018-12-21T02:40:57.424Z,88.24
2018-12-21T02:41:57.539Z,88.2
2018-12-21T02:42:57.387Z,88.15
2018-12-21T02:43:57.453Z,88.32
2018-12-21T02:44:57.337Z,88.44
2018-12-21T02:45:57.424Z,88.39
2018-12-21T02:46:57.407Z,88.32
2018-12-21T02:47:57.508Z,88.39
2018-12-21T02:48:57.367Z,88.22
2018-12-21T02:49:57.394Z,88.29
2018-12-21T02:50:57.350Z,88.37
2018-12-21T02:52:06.001Z,88.13
2018-12-21T02:52:57.382Z,87.9
2018-12-21T02:53:57.401Z,87.82
2018-12-21T02:54:57.616Z,87.86
2018-12-21T02:55:57.432Z,87.97
2018-12-21T02:56:57.445Z,87.78
2018-12-21T02:57:57.430Z,87.84
2018-12-21T02:58:57.556Z,87.77
2018-12-21T02:59:57.379Z,87.74
2018-12-21T03:00:57.367Z,87.74
2018-12-21T03:01:57.387Z,87.69
2018-12-21T03:02:57.567Z,87.69
2018-12-21T03:03:57.813Z,87.84
2018-12-21T03:04:57.513Z,87.88
2018-12-21T03:05:57.528Z,87.73
2018-12-21T03:06:57.630Z,87.66
2018-12-21T03:07:57.350Z,87.25
2018-12-21T03:08:57.558Z,87.5
2018-12-21T03:09:57.400Z,87.73
2018-12-21T03:10:57.383Z,87.85
2018-12-21T03:11:57.448Z,87.8
2018-12-21T03:12:57.367Z,87.83
2018-12-21T03:13:57.327Z,87.63
2018-12-21T03:14:57.568Z,87.55
2018-12-21T03:15:57.496Z,87.61
2018-12-21T03:16:57.631Z,87.75
2018-12-21T03:17:57.459Z,87.82
2018-12-21T03:18:57.491Z,87.98
2018-12-21T03:19:57.584Z,87.92
2018-12-21T03:20:57.327Z,87.85
2018-12-21T03:21:57.519Z,87.86
2018-12-21T03:22:57.444Z,87.79
2018-12-21T03:23:57.416Z,87.83
2018-12-21T03:24:57.324Z,87.82
2018-12-21T03:25:57.540Z,87.84
2018-12-21T03:26:57.479Z,87.84
2018-12-21T03:27:57.516Z,87.86
2018-12-21T03:28:57.337Z,87.93
2018-12-21T03:29:57.635Z,87.92
2018-12-21T03:30:57.398Z,88.05
2018-12-21T03:31:57.402Z,88.1
2018-12-21T03:32:57.389Z,88.12
2018-12-21T03:33:57.335Z,88.22
2018-12-21T03:34:57.667Z,88.26
2018-12-21T03:35:57.318Z,88.34
2018-12-21T03:36:57.453Z,88.28
2018-12-21T03:37:57.362Z,88.42
2018-12-21T03:38:57.611Z,88.45
2018-12-21T03:39:57.306Z,88.49
2018-12-21T03:40:58.125Z,88.6
2018-12-21T03:41:58.161Z,88.62
2018-12-21T03:42:57.377Z,88.74
2018-12-21T03:43:57.500Z,88.59
2018-12-21T03:44:57.286Z,88.19
2018-12-21T03:45:57.650Z,88.15
2018-12-21T03:46:57.425Z,88.33
2018-12-21T03:47:57.309Z,88.22
2018-12-21T03:48:57.432Z,88.26
2018-12-21T03:49:57.918Z,88.22
2018-12-21T03:50:57.455Z,88.11
2018-12-21T03:51:57.285Z,88.14
2018-12-21T03:52:57.308Z,87.92
2018-12-21T03:53:57.298Z,87.49
2018-12-21T03:54:57.457Z,87.08
2018-12-21T03:55:57.363Z,87.35
2018-12-21T03:56:57.253Z,87.35
2018-12-21T03:57:57.434Z,87.31
2018-12-21T03:58:57.496Z,87.02
2018-12-21T03:59:57.379Z,87.2
2018-12-21T04:00:57.435Z,87.22
2018-12-21T04:01:57.289Z,87.21
2018-12-21T04:02:57.776Z,87.27
2018-12-21T04:03:58.137Z,87.41
2018-12-21T04:04:57.723Z,87.38
2018-12-21T04:05:57.275Z,87.51
2018-12-21T04:06:57.346Z,87.57
2018-12-21T04:07:57.364Z,87.53
2018-12-21T04:08:57.443Z,87.05
2018-12-21T04:09:57.496Z,87.02
2018-12-21T04:10:57.389Z,87.03
2018-12-21T04:11:57.362Z,86.97
2018-12-21T04:12:57.291Z,86.83
2018-12-21T04:13:57.595Z,86.5
2018-12-21T04:14:57.299Z,86.63
2018-12-21T04:15:57.412Z,86.87
2018-12-21T04:16:57.373Z,86.85
2018-12-21T04:17:57.292Z,86.75
2018-12-21T04:18:57.349Z,86.7
2018-12-21T04:19:57.428Z,86.85
2018-12-21T04:20:57.305Z,86.5
2018-12-21T04:21:57.299Z,86.79
2018-12-21T04:22:57.309Z,86.73
2018-12-21T04:23:57.354Z,86.77
2018-12-21T04:24:57.337Z,86.73
2018-12-21T04:25:57.521Z,86.79
2018-12-21T04:26:57.414Z,86.99
2018-12-21T04:27:57.242Z,87.07
2018-12-21T04:28:57.341Z,87.13
2018-12-21T04:29:57.239Z,87.04
2018-12-21T04:30:57.299Z,87.04
2018-12-21T04:31:57.250Z,86.73
2018-12-21T04:32:57.233Z,86.71
2018-12-21T04:33:57.274Z,86.65
2018-12-21T04:34:57.236Z,86.67
2018-12-21T04:35:57.312Z,86.7
2018-12-21T04:36:57.283Z,86.59
2018-12-21T04:37:57.465Z,86.63
2018-12-21T04:38:57.578Z,86.59
2018-12-21T04:39:57.511Z,86.52
2018-12-21T04:40:57.381Z,86.59
2018-12-21T04:41:57.306Z,86.55
2018-12-21T04:42:57.326Z,86.61
2018-12-21T04:43:57.409Z,86.71
2018-12-21T04:44:57.239Z,86.6
2018-12-21T04:45:57.417Z,86.64
2018-12-21T04:46:57.250Z,86.71
2018-12-21T04:47:57.313Z,86.63
2018-12-21T04:48:57.328Z,86.63
2018-12-21T04:49:57.230Z,86.56
2018-12-21T04:50:57.485Z,86.53
2018-12-21T04:51:58.037Z,86.29
2018-12-21T04:52:57.465Z,85.89
2018-12-21T04:53:57.732Z,85.73
2018-12-21T04:54:57.325Z,85.54
2018-12-21T04:55:57.200Z,85.17
2018-12-21T04:56:57.398Z,85.04
2018-12-21T04:57:57.343Z,84.74
2018-12-21T04:58:57.307Z,84.66
2018-12-21T04:59:57.255Z,84.43
2018-12-21T05:00:57.354Z,84.58
2018-12-21T05:01:57.293Z,84.55
2018-12-21T05:02:57.303Z,84.38
2018-12-21T05:03:57.209Z,84.54
2018-12-21T05:04:57.379Z,84.26
2018-12-21T05:05:57.605Z,84.29
2018-12-21T05:06:58.764Z,84.26
2018-12-21T05:07:57.328Z,83.89
2018-12-21T05:08:57.379Z,83.92
2018-12-21T05:09:57.511Z,83.53
2018-12-21T05:10:57.156Z,83.53
2018-12-21T05:11:58.020Z,83.67
2018-12-21T05:12:57.565Z,83.75
2018-12-21T05:13:57.173Z,83.39
2018-12-21T05:14:57.181Z,83.33
2018-12-21T05:15:57.428Z,83.23
2018-12-21T05:16:57.198Z,83.09
2018-12-21T05:17:57.328Z,82.99
2018-12-21T05:18:57.715Z,82.92
2018-12-21T05:19:57.327Z,82.91
2018-12-21T05:20:57.429Z,82.9
2018-12-21T05:21:57.236Z,82.87
2018-12-21T05:22:57.404Z,82.96
2018-12-21T05:23:57.883Z,82.78
2018-12-21T05:24:57.599Z,82.77
2018-12-21T05:25:57.533Z,82.69
2018-12-21T05:26:57.240Z,82.02
2018-12-21T05:27:57.729Z,82.37
2018-12-21T05:28:57.480Z,82.75
2018-12-21T05:29:57.258Z,82.69
2018-12-21T05:30:57.196Z,82.98
2018-12-21T05:31:57.337Z,82.85
2018-12-21T05:32:57.394Z,82.48
2018-12-21T05:33:57.353Z,81.85
2018-12-21T05:34:57.301Z,82.06
2018-12-21T05:35:57.335Z,82.14
2018-12-21T05:36:57.571Z,81.08
2018-12-21T05:37:58.028Z,81.67
2018-12-21T05:38:57.394Z,81.84
2018-12-21T05:39:57.278Z,82.27
2018-12-21T05:40:57.213Z,82.36
2018-12-21T05:41:57.363Z,82.57
2018-12-21T05:42:57.176Z,82.6
2018-12-21T05:43:58.011Z,82.82
2018-12-21T05:44:57.567Z,82.81
2018-12-21T05:45:57.154Z,82.5
2018-12-21T05:46:57.202Z,83.03
2018-12-21T05:47:57.307Z,83.28
2018-12-21T05:48:57.236Z,83.52
2018-12-21T05:49:57.221Z,83.59
2018-12-21T05:50:57.415Z,84.03
2018-12-21T05:51:57.348Z,83.76
2018-12-21T05:53:01.260Z,83.92
2018-12-21T05:53:57.455Z,84.35
2018-12-21T05:54:57.302Z,84.36
2018-12-21T05:55:57.359Z,84.52
2018-12-21T05:56:57.347Z,84.45
2018-12-21T05:57:57.140Z,85.09
2018-12-21T05:58:57.241Z,84.51
2018-12-21T05:59:57.176Z,84.67
2018-12-21T06:00:57.132Z,84.97
2018-12-21T06:01:57.141Z,85.26
2018-12-21T06:02:57.158Z,85.49
2018-12-21T06:03:57.108Z,85.62
2018-12-21T06:04:57.115Z,85.6
2018-12-21T06:05:57.141Z,85.78
2018-12-21T06:06:57.172Z,85.95
2018-12-21T06:07:57.190Z,85.29
2018-12-21T06:08:57.228Z,85.68
2018-12-21T06:09:57.161Z,85.56
2018-12-21T06:10:57.476Z,85.83
2018-12-21T06:11:57.145Z,85.63
2018-12-21T06:12:57.141Z,86.18
2018-12-21T06:13:57.116Z,85.84
2018-12-21T06:14:57.110Z,85.98
2018-12-21T06:15:57.111Z,86.31
2018-12-21T06:16:57.173Z,85.82
2018-12-21T06:17:57.386Z,86.04
2018-12-21T06:18:57.168Z,86.72
2018-12-21T06:19:57.159Z,86.52
2018-12-21T06:20:57.406Z,85.96
2018-12-21T06:21:57.186Z,86.42
2018-12-21T06:22:57.652Z,86.49
2018-12-21T06:23:57.286Z,86.62
2018-12-21T06:24:57.092Z,86.86
2018-12-21T06:25:57.132Z,86.73
2018-12-21T06:26:57.105Z,86.92
2018-12-21T06:27:57.161Z,86.84
2018-12-21T06:28:57.078Z,86.95
2018-12-21T06:29:57.346Z,87.02
2018-12-21T06:30:57.578Z,87.37
2018-12-21T06:31:57.071Z,87.19
2018-12-21T06:32:57.136Z,87.22
2018-12-21T06:33:57.409Z,87.46
2018-12-21T06:34:57.164Z,87.4
2018-12-21T06:35:57.221Z,87.74
2018-12-21T06:36:57.124Z,88.17
2018-12-21T06:37:57.305Z,88.02
2018-12-21T06:38:57.104Z,88.37
2018-12-21T06:39:57.451Z,88.42
2018-12-21T06:40:57.370Z,88.32
2018-12-21T06:41:57.226Z,88.57
2018-12-21T06:42:57.459Z,88.61
2018-12-21T06:43:57.240Z,88.84
2018-12-21T06:44:57.128Z,88.85
2018-12-21T06:45:57.053Z,88.73
2018-12-21T06:46:57.245Z,88.82
2018-12-21T06:47:57.503Z,88.96
2018-12-21T06:48:57.120Z,89.11
2018-12-21T06:49:57.314Z,88.89
2018-12-21T06:50:57.192Z,88.96
2018-12-21T06:51:57.088Z,89.14
2018-12-21T06:52:57.184Z,89.32
2018-12-21T06:53:57.147Z,89.25
2018-12-21T06:54:57.181Z,89.41
2018-12-21T06:55:57.596Z,89.36
2018-12-21T06:56:57.314Z,89.43
2018-12-21T06:57:57.286Z,89.4
2018-12-21T06:58:57.073Z,89.54
2018-12-21T06:59:57.117Z,89.72
2018-12-21T07:00:57.237Z,89.68
2018-12-21T07:01:57.087Z,89.63
2018-12-21T07:02:57.093Z,89.58
2018-12-21T07:03:57.071Z,89.65
2018-12-21T07:04:57.385Z,89.72
2018-12-21T07:05:57.267Z,89.61
2018-12-21T07:06:57.538Z,90.11
2018-12-21T07:07:57.124Z,89.87
2018-12-21T07:08:57.057Z,89.79
2018-12-21T07:09:57.057Z,89.81
2018-12-21T07:10:57.249Z,90.27
2018-12-21T07:11:57.416Z,90.11
2018-12-21T07:12:57.819Z,90.27
2018-12-21T07:13:57.047Z,90.24
2018-12-21T07:14:57.028Z,90.29
2018-12-21T07:15:57.033Z,90.39
2018-12-21T07:16:57.242Z,90.36
2018-12-21T07:17:57.096Z,90.44
2018-12-21T07:18:57.104Z,90.46
2018-12-21T07:19:57.294Z,90.54
2018-12-21T07:20:57.302Z,90.61
2018-12-21T07:21:57.037Z,90.56
2018-12-21T07:22:57.200Z,90.61
2018-12-21T07:23:57.256Z,90.44
2018-12-21T07:24:57.284Z,90.52
2018-12-21T07:25:57.100Z,90.43
2018-12-21T07:26:57.844Z,90.83
2018-12-21T07:27:57.018Z,90.86
2018-12-21T07:28:57.407Z,90.84
2018-12-21T07:29:57.853Z,90.99
2018-12-21T07:30:57.123Z,91.02
2018-12-21T07:31:57.188Z,91.14
2018-12-21T07:32:57.170Z,90.92
2018-12-21T07:33:57.010Z,91.14
2018-12-21T07:34:57.436Z,91.16
2018-12-21T07:35:57.348Z,91.17
2018-12-21T07:36:57.213Z,91.03
2018-12-21T07:37:57.135Z,91.29
2018-12-21T07:38:57.122Z,91.32
2018-12-21T07:39:57.116Z,91.22
2018-12-21T07:40:57.032Z,91.17
2018-12-21T07:41:57.233Z,91.1
2018-12-21T07:42:57.167Z,91.09
2018-12-21T07:43:57.108Z,91.3
2018-12-21T07:44:57.193Z,91.42
2018-12-21T07:45:57.088Z,91.54
2018-12-21T07:46:57.165Z,91.27
2018-12-21T07:47:57.046Z,91.13
2018-12-21T07:48:57.069Z,91.2
2018-12-21T07:49:57.212Z,90.85
2018-12-21T07:50:57.011Z,90.92
2018-12-21T07:51:57.083Z,90.99
2018-12-21T07:52:57.056Z,91.07
2018-12-21T07:53:57.149Z,91.1
2018-12-21T07:54:57.297Z,91.04
2018-12-21T07:55:57.043Z,90.95
2018-12-21T07:56:57.123Z,90.99
2018-12-21T07:57:58.833Z,91.11
2018-12-21T07:58:57.822Z,91.22
2018-12-21T07:59:57.221Z,91.07
2018-12-21T08:00:57.228Z,91
2018-12-21T08:01:57.142Z,91.03
2018-12-21T08:02:56.980Z,90.87
2018-12-21T08:03:57.223Z,91.08
2018-12-21T08:04:57.620Z,91.04
2018-12-21T08:05:57.155Z,91.18
2018-12-21T08:06:57.212Z,91.21
2018-12-21T08:07:57.303Z,91.21
2018-12-21T08:08:57.131Z,90.94
2018-12-21T08:09:57.417Z,90.9
2018-12-21T08:10:57.271Z,91.18
2018-12-21T08:11:57.087Z,91.25
2018-12-21T08:12:57.096Z,91.39
2018-12-21T08:13:57.224Z,91.23
2018-12-21T08:14:57.144Z,91.22
2018-12-21T08:15:57.048Z,91.38
2018-12-21T08:16:57.055Z,91.2
2018-12-21T08:17:57.490Z,91.37
2018-12-21T08:18:57.272Z,91.2
2018-12-21T08:19:57.124Z,91.02
2018-12-21T08:20:56.981Z,91.15
2018-12-21T08:21:57.012Z,91.03
2018-12-21T08:22:56.965Z,90.94
2018-12-21T08:23:57.102Z,91
2018-12-21T08:24:57.233Z,91.22
2018-12-21T08:25:57.414Z,91.32
2018-12-21T08:26:57.041Z,91.19
2018-12-21T08:27:57.666Z,91.06
2018-12-21T08:28:57.031Z,91.17
2018-12-21T08:29:57.095Z,91.21
2018-12-21T08:30:57.342Z,91.28
2018-12-21T08:31:57.776Z,91.25
2018-12-21T08:32:57.202Z,91.18
2018-12-21T08:33:57.065Z,91.16
2018-12-21T08:34:57.069Z,90.92
2018-12-21T08:35:57.186Z,90.97
2018-12-21T08:36:57.239Z,90.9
2018-12-21T08:37:56.967Z,90.64
2018-12-21T08:38:56.919Z,90.66
2018-12-21T08:39:57.179Z,91.15
2018-12-21T08:40:57.089Z,91.27
2018-12-21T08:41:57.186Z,90.59
2018-12-21T08:42:57.217Z,90.68
2018-12-21T08:43:57.231Z,90.81
2018-12-21T08:44:57.876Z,90.46
2018-12-21T08:45:57.229Z,90.59
2018-12-21T08:46:57.760Z,90.61
2018-12-21T08:47:57.122Z,90.97
2018-12-21T08:48:57.159Z,90.73
2018-12-21T08:49:57.417Z,90.66
2018-12-21T08:50:57.154Z,90.51
2018-12-21T08:51:56.930Z,90.65
2018-12-21T08:52:57.067Z,90.82
2018-12-21T08:53:57.147Z,90.65
2018-12-21T08:54:57.072Z,90.57
2018-12-21T08:55:57.291Z,90.5
2018-12-21T08:56:56.917Z,90.54
2018-12-21T08:57:57.749Z,90.45
2018-12-21T08:58:57.145Z,90.57
2018-12-21T08:59:57.211Z,90.51
2018-12-21T09:00:57.090Z,90.14
2018-12-21T09:01:57.484Z,90.3
2018-12-21T09:02:57.092Z,90.33
2018-12-21T09:03:57.193Z,90.56
2018-12-21T09:04:56.968Z,90.68
2018-12-21T09:05:57.189Z,90.59
2018-12-21T09:06:57.161Z,90.25
2018-12-21T09:07:57.325Z,90.52
2018-12-21T09:08:57.176Z,90.48
2018-12-21T09:09:56.934Z,90.24
2018-12-21T09:10:57.016Z,90.23
2018-12-21T09:11:57.073Z,90.42
2018-12-21T09:12:56.933Z,90.03
2018-12-21T09:13:57.160Z,90.33
2018-12-21T09:14:56.893Z,90.38
2018-12-21T09:15:57.360Z,90.46
2018-12-21T09:16:57.120Z,90.31
2018-12-21T09:17:56.895Z,90.26
2018-12-21T09:18:56.937Z,90.28
2018-12-21T09:19:57.016Z,90.28
2018-12-21T09:20:57.019Z,90.14
2018-12-21T09:21:57.028Z,90.27
2018-12-21T09:22:56.865Z,90.06
2018-12-21T09:24:01.602Z,90.34
2018-12-21T09:24:57.254Z,90.43
2018-12-21T09:25:56.990Z,90.53
2018-12-21T09:26:56.891Z,90.63
2018-12-21T09:27:57.225Z,90.76
2018-12-21T09:28:56.853Z,90.73
2018-12-21T09:29:57.069Z,91.02
2018-12-21T09:30:57.082Z,91.17
2018-12-21T09:32:05.626Z,91.16
2018-12-21T09:32:56.860Z,90.9
2018-12-21T09:33:56.875Z,90.75
2018-12-21T09:34:57.260Z,91.05
2018-12-21T09:35:57.060Z,91.27
2018-12-21T09:36:56.933Z,91.24
2018-12-21T09:37:57.065Z,91.33
2018-12-21T09:38:56.845Z,91.52
2018-12-21T09:39:56.947Z,91.56
2018-12-21T09:40:57.015Z,91.68
2018-12-21T09:41:56.987Z,91.88
2018-12-21T09:42:56.890Z,91.9
2018-12-21T09:43:56.843Z,91.81
2018-12-21T09:44:57.157Z,91.79
2018-12-21T09:45:57.137Z,91.74
2018-12-21T09:46:57.119Z,91.93
2018-12-21T09:47:57.068Z,91.92
2018-12-21T09:48:57.223Z,91.99
2018-12-21T09:49:57.028Z,91.9
2018-12-21T09:50:57.170Z,92.1
2018-12-21T09:51:57.095Z,92.27
2018-12-21T09:52:57.662Z,92.23
2018-12-21T09:53:57.035Z,92.4
2018-12-21T09:54:57.044Z,92.41
2018-12-21T09:55:56.847Z,92.48
2018-12-21T09:56:56.819Z,92.54
2018-12-21T09:57:57.057Z,92.7
2018-12-21T09:58:57.003Z,92.68
2018-12-21T09:59:56.913Z,92.86
2018-12-21T10:00:57.729Z,92.79
2018-12-21T10:01:56.860Z,92.79
2018-12-21T10:02:56.880Z,92.78
2018-12-21T10:03:57.003Z,92.72
2018-12-21T10:04:56.893Z,92.51
2018-12-21T10:05:57.093Z,92.79
2018-12-21T10:06:57.230Z,92.76
2018-12-21T10:07:56.818Z,92.69
2018-12-21T10:08:57.014Z,92.75
2018-12-21T10:09:57.659Z,92.92
2018-12-21T10:10:57.000Z,92.69
2018-12-21T10:11:57.211Z,92.88
2018-12-21T10:12:56.988Z,92.78
2018-12-21T10:13:57.029Z,93.07
2018-12-21T10:14:57.120Z,92.95
2018-12-21T10:15:57.168Z,92.79
2018-12-21T10:16:56.884Z,92.76
2018-12-21T10:17:57.620Z,92.79
2018-12-21T10:18:57.063Z,92.72
2018-12-21T10:19:57.662Z,92.92
2018-12-21T10:20:56.854Z,93.04
2018-12-21T10:21:56.846Z,92.77
2018-12-21T10:22:56.868Z,92.79
2018-12-21T10:23:57.098Z,92.9
2018-12-21T10:24:56.978Z,92.89
2018-12-21T10:25:57.031Z,92.33
2018-12-21T10:26:57.133Z,92.37
2018-12-21T10:27:56.955Z,92.6
2018-12-21T10:28:56.802Z,92.41
2018-12-21T10:29:56.843Z,92.22
2018-12-21T10:30:57.627Z,92.21
2018-12-21T10:31:56.864Z,92.17
2018-12-21T10:32:57.607Z,92.54
2018-12-21T10:33:56.965Z,92.2
2018-12-21T10:34:57.110Z,92.26
2018-12-21T10:35:56.807Z,92.2
2018-12-21T10:36:57.640Z,92.1
2018-12-21T10:37:57.647Z,91.96
2018-12-21T10:38:57.073Z,92.08
2018-12-21T10:39:57.179Z,91.6
2018-12-21T10:40:57.145Z,91.47
2018-12-21T10:41:57.183Z,91.28
2018-12-21T10:42:56.789Z,91.33
2018-12-21T10:43:57.592Z,91.2
2018-12-21T10:44:56.557Z,91.49
2018-12-21T10:45:56.813Z,91.56
2018-12-21T10:46:57.575Z,91.43
2018-12-21T10:47:57.034Z,91.62
2018-12-21T10:48:57.004Z,91.81
2018-12-21T10:49:56.781Z,91.92
2018-12-21T10:50:56.773Z,91.84
2018-12-21T10:51:57.596Z,91.75
2018-12-21T10:52:56.890Z,91.65
2018-12-21T10:53:57.014Z,91.71
2018-12-21T10:54:57.117Z,91.76
2018-12-21T10:55:57.092Z,91.76
2018-12-21T10:56:57.153Z,91.74
2018-12-21T10:57:56.900Z,91.61
2018-12-21T10:58:56.808Z,91.64
2018-12-21T10:59:57.052Z,91.51
2018-12-21T11:00:56.752Z,91.31
2018-12-21T11:01:56.729Z,91.43
2018-12-21T11:02:56.752Z,91.43
2018-12-21T11:03:56.771Z,91.34
2018-12-21T11:04:56.751Z,91.37
2018-12-21T11:05:56.757Z,91.64
2018-12-21T11:06:56.773Z,91.72
2018-12-21T11:07:56.754Z,91.78
2018-12-21T11:08:56.775Z,91.85
2018-12-21T11:09:56.814Z,91.63
2018-12-21T11:10:56.992Z,91.58
2018-12-21T11:11:56.748Z,91.66
2018-12-21T11:12:56.696Z,91.77
2018-12-21T11:13:56.756Z,91.88
2018-12-21T11:14:56.704Z,91.95
2018-12-21T11:15:56.796Z,91.89
2018-12-21T11:16:56.779Z,92.1
2018-12-21T11:17:56.841Z,92.16
2018-12-21T11:18:57.218Z,92.26
2018-12-21T11:19:56.995Z,92.42
2018-12-21T11:20:57.046Z,92.52
2018-12-21T11:21:56.960Z,92.82
2018-12-21T11:22:57.070Z,92.94
2018-12-21T11:23:57.064Z,92.91
2018-12-21T11:24:57.379Z,92.93
2018-12-21T11:25:56.689Z,93.01
2018-12-21T11:26:56.709Z,93.1
2018-12-21T11:27:56.816Z,92.94
2018-12-21T11:28:56.712Z,93.07
2018-12-21T11:29:56.955Z,93.29
2018-12-21T11:30:56.962Z,93.05
2018-12-21T11:31:56.690Z,93.45
2018-12-21T11:32:57.404Z,93.4
2018-12-21T11:33:56.698Z,93.21
2018-12-21T11:34:56.926Z,93.53
2018-12-21T11:35:56.936Z,93.72
2018-12-21T11:36:56.716Z,93.6
2018-12-21T11:37:57.149Z,93.78
2018-12-21T11:38:56.766Z,93.76
2018-12-21T11:39:56.740Z,93.84
2018-12-21T11:40:57.044Z,94.03
2018-12-21T11:41:57.036Z,94.05
2018-12-21T11:42:56.996Z,94.07
2018-12-21T11:43:56.802Z,93.98
2018-12-21T11:44:56.795Z,94.09
2018-12-21T11:45:56.980Z,94.13
2018-12-21T11:46:57.527Z,94.09
2018-12-21T11:47:56.916Z,93.98
2018-12-21T11:48:56.815Z,93.89
2018-12-21T11:49:56.670Z,93.91
2018-12-21T11:50:56.784Z,93.91
2018-12-21T11:51:56.985Z,94.07
2018-12-21T11:52:56.761Z,94.11
2018-12-21T11:53:56.714Z,94.25
2018-12-21T11:54:58.848Z,94.22
2018-12-21T11:55:57.511Z,94.14
2018-12-21T11:56:56.716Z,94.23
2018-12-21T11:57:56.891Z,94.26
2018-12-21T11:58:56.859Z,94.22
2018-12-21T11:59:56.715Z,94.48
2018-12-21T12:00:57.491Z,94.46
2018-12-21T12:01:57.515Z,94.6
2018-12-21T12:02:56.808Z,94.38
2018-12-21T12:03:57.544Z,94.43
2018-12-21T12:04:56.669Z,94.57
2018-12-21T12:05:56.852Z,94.67
2018-12-21T12:06:57.036Z,94.72
2018-12-21T12:07:57.046Z,94.68
2018-12-21T12:08:56.678Z,94.53
2018-12-21T12:09:56.688Z,94.47
2018-12-21T12:10:56.718Z,94.46
2018-12-21T12:11:56.881Z,94.38
2018-12-21T12:12:56.701Z,94.16
2018-12-21T12:13:56.804Z,94.02
2018-12-21T12:14:57.529Z,94.13
2018-12-21T12:15:56.783Z,94.17
2018-12-21T12:16:58.991Z,94.11
2018-12-21T12:17:56.834Z,94.15
2018-12-21T12:18:56.784Z,94.34
2018-12-21T12:19:56.731Z,94.31
2018-12-21T12:20:57.069Z,94.45
2018-12-21T12:21:56.791Z,94.42
2018-12-21T12:22:56.752Z,94.35
2018-12-21T12:23:56.820Z,94.48
2018-12-21T12:24:56.764Z,94.58
2018-12-21T12:25:56.784Z,94.56
2018-12-21T12:26:57.042Z,94.54
2018-12-21T12:27:56.845Z,94.51
2018-12-21T12:28:56.696Z,94.53
2018-12-21T12:29:56.756Z,94.62
2018-12-21T12:30:57.174Z,94.54
2018-12-21T12:31:56.846Z,94.54
2018-12-21T12:32:56.751Z,94.58
2018-12-21T12:33:57.154Z,94.63
2018-12-21T12:34:56.860Z,94.63
2018-12-21T12:35:56.758Z,94.78
2018-12-21T12:36:58.236Z,94.63
2018-12-21T12:37:56.688Z,94.61
2018-12-21T12:38:56.638Z,94.63
2018-12-21T12:39:56.731Z,94.72
2018-12-21T12:40:56.657Z,94.86
2018-12-21T12:41:56.632Z,94.76
2018-12-21T12:42:56.638Z,94.67
2018-12-21T12:43:57.072Z,94.57
2018-12-21T12:44:56.636Z,94.78
2018-12-21T12:45:56.611Z,94.86
2018-12-21T12:46:56.652Z,94.59
2018-12-21T12:47:56.872Z,94.48
2018-12-21T12:48:56.609Z,94.5
2018-12-21T12:49:56.634Z,94.52
2018-12-21T12:50:56.691Z,94.4
2018-12-21T12:51:56.786Z,94.56
2018-12-21T12:52:56.626Z,94.66
2018-12-21T12:53:56.766Z,94.74
2018-12-21T12:55:03.443Z,94.8
2018-12-21T12:55:57.004Z,94.73